Airfield :
LOGIN :

Register | Disclaimer

   EN    FR    IT 

 










Legend :    VFR   Marginal VFR   IFR   Intensive IFR   Very Intensive IFR
Visi :
Ceiling :
>= 8 km
>= 3000ft
5 to 8 km
1000 to 3000 ft
1500m to 5 km
500 to 1000 ft
800 to 1500m
200 to 500 ft
< 800m
< 200 ft
Symbols :   Thunderstorms  Fog  Heavy snow  Heavy precipitations  Wind > 20 kt
SIGMETs :     Misc.  Thunderstorms  Icing  Turbulence  Mountain Waves  Volcanic Ashes






- Airport Elevation : 1504 ft
- IATA code : PNA


LEPP - Noain Pamplona

CURRENT METAR :
  • 041430Z 01011KT 330V040 9999 FEW040 25/14 Q1017

EXPIRED METARs :
  • 041400Z 03012KT 010V070 9999 FEW040 25/14 Q1017
  • 041330Z 36008KT 310V050 9999 FEW030 SCT045 24/13 Q1017
  • 041300Z 35009KT 300V030 9999 FEW030 SCT050 23/14 Q1017
  • 041230Z 32007KT 290V010 9999 FEW030 SCT055 23/15 Q1018
  • 041200Z 34011KT 300V010 9999 FEW030 BKN055 21/15 Q1018

TAF TAF LEPP
Valid from the 04 at 15:00 until the 05 at 15:00 UTC


041400Z 0415/0515 35012KT 9999 FEW020 SCT035 TX30/0515Z TN12/0506Z
PROB30
TEMPO 0415/0420 01015G25KT
BECMG 0421/0423 VRB05KT
PROB30
TEMPO 0503/0506 4000 BR BKN010



MET'MAP, your aeronautical weather chart ! - Copyright ORBIFLY December 2007 - Disclaimer

ORBIFLY MET'MAP TEAM :

Programming & Development : Alexandra Zaïnal
Concept & original design : Baudouin d'Aumeries
Assistance for programming : Marc-Olivier Méhu
Technical & hardware support : Manuel Goepfert

Contact : metmap@orbifly.com




SOURCES & CREDITS :

   NOAA